ADDS METAR Data INFO
IDs: Format: Raw Decoded Include TAF

Data at: 2113 UTC 22 Oct 2017

PACM 222110Z AUTO 00000KT 1 3/4SM UP OVC011 00/M04 A2941 RMK AO2 VIS 1V4 UPB06 P0000 FZRANO
PACM 222056Z AUTO 00000KT 10SM OVC011 M01/M05 A2940 RMK AO2 SLP953 T10111050 53021 FZRANO
PACM 222033Z AUTO 00000KT 10SM BKN011 BKN017 M02/M05 A2940 RMK AO2 FZRANO
PACM 222006Z AUTO 19003KT 10SM BKN009 M06/M07 A2938 RMK AO2 FZRANO
PACM 221956Z AUTO 18003KT 10SM SCT007 SCT031 M06/M07 A2938 RMK AO2 SLP945 T10561072 FZRANO
PACM 221948Z AUTO 00000KT 10SM FEW007 BKN031 M05/M06 A2938 RMK AO2 FZRANO
PACM 221936Z AUTO 00000KT 10SM FEW024 BKN031 M04/M06 A2938 RMK AO2 FZRANO
PACM 221856Z AUTO 00000KT 10SM BKN018 OVC026 M06/M07 A2936 RMK AO2 SLP939 T10561067 FZRANO
PACM 221756Z AUTO 00000KT 10SM BKN024 M07/M08 A2934 RMK AO2 SLP932 T10671083 11033 21067 51013 FZRANO
PACM 221714Z AUTO 00000KT 10SM BKN024 M06/M08 A2934 RMK AO2 FZRANO
PACM 221656Z AUTO VRB03KT 10SM FEW024 M06/M08 A2934 RMK AO2 SLP930 T10611078 FZRANO
PACM 221618Z AUTO 26005KT 10SM SCT023 M05/M07 A2932 RMK AO2 FZRANO
PACM 221556Z AUTO VRB03KT 10SM BKN023 M06/M07 A2932 RMK AO2 SLP923 T10561072 FZRANO
PACM 221456Z AUTO 27005KT 10SM BKN019 BKN028 OVC037 M04/M06 A2931 RMK AO2 SLP920 T10441061 53008 FZRANO
PACM 221444Z AUTO 25005KT 10SM BKN019 BKN028 M05/M07 A2930 RMK AO2 FZRANO
PACM 221356Z AUTO 20003KT 10SM SCT032 M06/M08 A2928 RMK AO2 SLP911 T10561078 FZRANO
PACM 221310Z AUTO 00000KT 10SM SCT021 BKN033 M04/M07 A2928 RMK AO2 FZRANO
PACM 221256Z AUTO 25004KT 10SM BKN021 BKN031 M03/M06 A2928 RMK AO2 SLP911 T10331061 FZRANO
PACM 221156Z AUTO 26005KT 10SM OVC019 M04/M06 A2928 RMK AO2 SLP911 70002 T10391061 11033 21044 53010 FZRANO
PACM 221056Z AUTO 27007KT 10SM OVC017 M04/M06 A2927 RMK AO2 SLP907 T10391061 FZRANO
PACM 221015Z AUTO 27006KT 10SM BKN019 M04/M06 A2926 RMK AO2 FZRANO
PACM 221008Z AUTO 27006KT 10SM SCT021 M04/M07 A2925 RMK AO2 FZRANO
PACM 220956Z AUTO 27006KT 10SM BKN021 M04/M06 A2925 RMK AO2 SLP902 T10391061 FZRANO
PACM 220856Z AUTO 27008KT 10SM OVC023 M04/M06 A2925 RMK AO2 SLP901 T10391061 410111050 51007 FZRANO
PACM 220756Z AUTO 26006KT 10SM OVC023 M04/M06 A2925 RMK AO2 SLP900 T10391061 FZRANO
PACM 220656Z AUTO 25004KT 10SM BKN027 OVC032 M04/M06 A2924 RMK AO2 SLP898 T10391061 FZRANO
PACM 220556Z AUTO 25004KT 10SM OVC023 M04/M06 A2923 RMK AO2 SLP894 T10391056 11017 21050 52005 FZRANO
PACM 220536Z AUTO 26004KT 10SM BKN023 M04/M06 A2923 RMK AO2 FZRANO
PACM 220512Z AUTO 25004KT 10SM FEW023 M04/M07 A2922 RMK AO2 FZRANO
PACM 220456Z AUTO 28004KT 10SM BKN023 M04/M06 A2922 RMK AO2 SLP892 T10441061 FZRANO
PACM 220451Z AUTO 27005KT 10SM BKN023 M04/M06 A2922 RMK AO2 FZRANO
PACM 220428Z AUTO 26006KT 10SM SCT026 M04/M06 A2922 RMK AO2 FZRANO
PACM 220411Z AUTO 26006KT 10SM BKN026 M03/M06 A2922 RMK AO2 FZRANO
PACM 220356Z AUTO 26006KT 10SM SCT026 M03/M06 A2922 RMK AO2 SLP889 T10331061 FZRANO
PACM 220353Z AUTO 26007KT 10SM BKN026 M03/M06 A2922 RMK AO2 FZRANO
PACM 220256Z AUTO 27006KT 10SM FEW022 M03/M06 A2921 RMK AO2 SLP886 T10331056 53002 FZRANO
PACM 220249Z AUTO 29006KT 10SM SCT024 M03/M06 A2921 RMK AO2 FZRANO
PACM 220156Z AUTO 29010KT 10SM BKN021 BKN027 M03/M06 A2920 RMK AO2 SLP885 T10281056 FZRANO
PACM 220056Z AUTO 29013KT 10SM OVC026 M02/M06 A2920 RMK AO2 SLP883 T10221056 FZRANO
PACM 212356Z AUTO 29012KT 10SM OVC024 M02/M05 A2920 RMK AO2 SLP885 T10221050 11017 21039 50003 FZRANO
PACM 212256Z AUTO 29012KT 10SM OVC020 M02/M05 A2920 RMK AO2 SLP885 T10221050 FZRANO
PACM 212156Z AUTO 29014KT 10SM OVC020 M02/M05 A2920 RMK AO2 SLP884 T10221050 FZRANO
PACM 212056Z AUTO 29011KT 10SM BKN026 M03/M06 A2919 RMK AO2 SLP882 T10281056 51009 FZRANO
PACM 211956Z AUTO 26009KT 10SM SCT024 M03/M06 A2918 RMK AO2 SLP877 T10331056 FZRANO
PACM 211856Z AUTO 26009KT 10SM CLR M04/M06 A2917 RMK AO2 SLP872 T10391056 FZRANO
PACM 211756Z AUTO 29007KT 10SM CLR M03/M06 A2916 RMK AO2 SLP869 60002 T10331061 11011 21033 53009 FZRANO
PACM 211656Z AUTO 27009KT 10SM FEW024 BKN038 M02/M05 A2915 RMK AO2 SNB06E17B34E44 SLP866 P0000 T10221050 FZRANO
PACM 211645Z AUTO 28009KT 9SM SCT024 BKN036 BKN043 M02/M04 A2914 RMK AO2 SNB06E17B34E44 P0000 FZRANO
PACM 211638Z AUTO 29008KT 10SM -SN BKN024 BKN045 BKN120 M02/M04 A2914 RMK AO2 SNB06E17B34 P0000 FZRANO
PACM 211620Z AUTO 27010KT 9SM FEW020 SCT026 SCT120 M02/M05 A2913 RMK AO2 SNB06E17 P0000 FZRANO
PACM 211556Z AUTO 27018KT 10SM FEW021 BKN027 BKN036 M01/M04 A2913 RMK AO2 SNE26 SLP860 P0001 T10111039 FZRANO
PACM 211543Z AUTO 27016KT 10SM SCT027 SCT039 M01/M04 A2913 RMK AO2 SNE26 P0001 FZRANO
PACM 211507Z AUTO 22015G20KT 3SM -SN FEW011 BKN024 OVC048 M02/M04 A2913 RMK AO2 P0000 FZRANO
PACM 211456Z AUTO 23021G25KT 1 1/2SM -SN BR SCT011 BKN020 OVC044 M02/M04 A2913 RMK AO2 PK WND 26027/1408 SLP860 P0000 60001 T10221039 56027 FZRANO
PACM 211435Z AUTO 23016KT 1 1/4SM -SN BR SCT008 BKN012 OVC018 M02/M03 A2914 RMK AO2 PK WND 26027/1408 P0000 FZRANO
PACM 211426Z AUTO 24017G23KT 3/4SM -SN BR FEW005 BKN012 OVC020 M02/M04 A2914 RMK AO2 PK WND 26027/1408 P0000 FZRANO
PACM 211421Z AUTO 24018G23KT 1 1/4SM -SN BR FEW007 BKN012 OVC035 M02/M04 A2915 RMK AO2 PK WND 26027/1408 P0000 FZRANO
PACM 211418Z AUTO 23019G26KT 1 1/4SM -SN BR SCT010 BKN021 OVC035 M02/M04 A2915 RMK AO2 PK WND 26027/1408 P0000 FZRANO
PACM 211411Z AUTO 24021G27KT 3/4SM -SN BR SCT009 BKN018 OVC033 M02/M04 A2915 RMK AO2 PK WND 26027/1408 VIS 1/2V3 P0000 FZRANO
PACM 211409Z AUTO 25024G27KT 1SM -SN BR SCT009 BKN020 OVC035 M02/M04 A2915 RMK AO2 PK WND 26027/1408 VIS 1/2V5 CIG 014V028 P0000 FZRANO
PACM 211404Z AUTO 23021G26KT 2 1/2SM -SN BR FEW009 BKN027 OVC035 M02/M04 A2915 RMK AO2 PK WND 23026/1359 P0000 FZRANO
PACM 211356Z AUTO 23020G25KT 6SM -SN BR FEW011 BKN031 OVC048 M02/M04 A2915 RMK AO2 PK WND 21026/1332 SLP867 P0001 T10221039 FZRANO
PACM 211353Z AUTO 23019G25KT 3SM -SN BR SCT014 BKN025 OVC048 M02/M04 A2915 RMK AO2 PK WND 21026/1332 P0001 FZRANO
PACM 211342Z AUTO 24018G22KT 1 3/4SM -SN BR SCT012 BKN019 OVC038 M02/M04 A2916 RMK AO2 PK WND 21026/1332 VIS 3/4V5 P0001 FZRANO
PACM 211336Z AUTO 24016G26KT 5SM -SN FEW012 BKN019 OVC055 M02/M05 A2917 RMK AO2 PK WND 21026/1332 P0001 FZRANO
PACM 211325Z AUTO 22018G23KT 8SM -SN SCT024 BKN033 OVC055 M02/M06 A2917 RMK AO2 P0001 FZRANO
PACM 211304Z AUTO 25018KT 9SM -SN SCT017 BKN026 OVC036 M02/M05 A2918 RMK AO2 P0000 FZRANO
PACM 211256Z AUTO 23007KT 2 1/2SM -SN FEW015 BKN026 OVC034 M02/M05 A2919 RMK AO2 SNB02 SLP879 P0000 T10221050 FZRANO
PACM 211227Z AUTO 24011KT 6SM -SN FEW009 BKN028 OVC044 M02/M06 A2920 RMK AO2 SNB02 P0000 FZRANO
PACM 211156Z AUTO 21015KT 10SM FEW039 SCT090 M03/M07 A2921 RMK AO2 SNB10E32 SLP887 P0000 60001 70010 T10281067 11022 21050 58010 FZRANO
PACM 211056Z AUTO 24008KT 10SM FEW030 SCT046 M03/M07 A2923 RMK AO2 SNB13E43 SLP893 P0000 T10281067 FZRANO
PACM 210956Z AUTO 20009KT 10SM FEW028 SCT035 M03/M07 A2924 RMK AO2 SNE19 SLP896 P0000 T10331072 FZRANO